sensor_id;sensor_type;location;lat;lon;timestamp;pressure;altitude;pressure_sealevel;temperature;humidity
23616;BME280;11985;49.404;7.734;2022-12-18T00:04:18;98276.91;;;-10.45;100.00
23616;BME280;11985;49.404;7.734;2022-12-18T00:09:22;98272.59;;;-10.43;100.00
23616;BME280;11985;49.404;7.734;2022-12-18T00:14:25;98279.88;;;-10.32;100.00
23616;BME280;11985;49.404;7.734;2022-12-18T00:19:26;98282.88;;;-10.21;100.00
23616;BME280;11985;49.404;7.734;2022-12-18T00:24:29;98272.78;;;-10.24;100.00
23616;BME280;11985;49.404;7.734;2022-12-18T00:29:31;98278.38;;;-10.38;100.00
23616;BME280;11985;49.404;7.734;2022-12-18T00:34:33;98286.09;;;-10.41;100.00
23616;BME280;11985;49.404;7.734;2022-12-18T00:39:36;98296.91;;;-10.34;100.00
23616;BME280;11985;49.404;7.734;2022-12-18T00:44:37;98296.47;;;-10.22;100.00
23616;BME280;11985;49.404;7.734;2022-12-18T00:49:39;98289.28;;;-10.11;100.00
23616;BME280;11985;49.404;7.734;2022-12-18T00:54:42;98292.00;;;-10.16;100.00
23616;BME280;11985;49.404;7.734;2022-12-18T00:59:43;98275.25;;;-10.23;100.00
23616;BME280;11985;49.404;7.734;2022-12-18T01:04:45;98272.38;;;-10.37;100.00
23616;BME280;11985;49.404;7.734;2022-12-18T01:09:48;98263.03;;;-10.36;100.00
23616;BME280;11985;49.404;7.734;2022-12-18T01:14:50;98271.56;;;-10.38;100.00
23616;BME280;11985;49.404;7.734;2022-12-18T01:19:51;98281.53;;;-10.31;100.00
23616;BME280;11985;49.404;7.734;2022-12-18T01:24:54;98291.72;;;-10.31;100.00
23616;BME280;11985;49.404;7.734;2022-12-18T01:29:55;98272.19;;;-10.31;100.00
23616;BME280;11985;49.404;7.734;2022-12-18T01:34:57;98272.47;;;-10.40;99.62
23616;BME280;11985;49.404;7.734;2022-12-18T01:40:00;98286.19;;;-10.44;99.41
23616;BME280;11985;49.404;7.734;2022-12-18T01:45:08;98287.00;;;-10.42;100.00
23616;BME280;11985;49.404;7.734;2022-12-18T01:50:25;98290.31;;;-10.40;99.13
23616;BME280;11985;49.404;7.734;2022-12-18T01:55:34;98308.59;;;-10.54;98.44
23616;BME280;11985;49.404;7.734;2022-12-18T02:00:37;98307.16;;;-10.62;99.08
23616;BME280;11985;49.404;7.734;2022-12-18T02:05:44;98308.34;;;-10.73;99.64
23616;BME280;11985;49.404;7.734;2022-12-18T02:10:55;98318.38;;;-10.68;100.00
23616;BME280;11985;49.404;7.734;2022-12-18T02:16:02;98312.53;;;-10.72;100.00
23616;BME280;11985;49.404;7.734;2022-12-18T02:21:12;98315.97;;;-10.73;100.00
23616;BME280;11985;49.404;7.734;2022-12-18T02:26:23;98314.22;;;-10.71;100.00
23616;BME280;11985;49.404;7.734;2022-12-18T02:31:30;98298.97;;;-10.71;100.00
23616;BME280;11985;49.404;7.734;2022-12-18T02:36:33;98285.56;;;-10.76;100.00
23616;BME280;11985;49.404;7.734;2022-12-18T02:41:38;98305.78;;;-10.73;100.00
23616;BME280;11985;49.404;7.734;2022-12-18T02:46:42;98294.56;;;-10.66;100.00
23616;BME280;11985;49.404;7.734;2022-12-18T02:51:50;98277.50;;;-10.63;100.00
23616;BME280;11985;49.404;7.734;2022-12-18T02:56:57;98261.88;;;-10.53;100.00
23616;BME280;11985;49.404;7.734;2022-12-18T03:02:03;98260.94;;;-10.50;100.00
23616;BME280;11985;49.404;7.734;2022-12-18T03:07:10;98287.66;;;-10.37;100.00
23616;BME280;11985;49.404;7.734;2022-12-18T03:12:18;98287.56;;;-10.34;100.00
23616;BME280;11985;49.404;7.734;2022-12-18T03:17:26;98268.97;;;-10.36;100.00
23616;BME280;11985;49.404;7.734;2022-12-18T03:22:30;98274.94;;;-10.37;100.00
23616;BME280;11985;49.404;7.734;2022-12-18T03:27:37;98274.72;;;-10.31;100.00
23616;BME280;11985;49.404;7.734;2022-12-18T03:32:44;98263.44;;;-10.24;100.00
23616;BME280;11985;49.404;7.734;2022-12-18T03:37:47;98266.72;;;-10.22;100.00
23616;BME280;11985;49.404;7.734;2022-12-18T03:42:55;98272.56;;;-10.18;100.00
23616;BME280;11985;49.404;7.734;2022-12-18T03:48:04;98276.59;;;-10.13;100.00
23616;BME280;11985;49.404;7.734;2022-12-18T03:53:14;98274.81;;;-10.11;100.00
23616;BME280;11985;49.404;7.734;2022-12-18T03:58:24;98283.13;;;-10.05;100.00
23616;BME280;11985;49.404;7.734;2022-12-18T04:03:27;98287.16;;;-9.98;100.00
23616;BME280;11985;49.404;7.734;2022-12-18T04:08:31;98283.50;;;-9.91;100.00
23616;BME280;11985;49.404;7.734;2022-12-18T04:13:37;98278.41;;;-9.91;100.00
23616;BME280;11985;49.404;7.734;2022-12-18T04:18:39;98262.44;;;-9.96;100.00
23616;BME280;11985;49.404;7.734;2022-12-18T04:23:41;98256.00;;;-10.06;100.00
23616;BME280;11985;49.404;7.734;2022-12-18T04:28:44;98270.63;;;-10.12;100.00
23616;BME280;11985;49.404;7.734;2022-12-18T04:33:45;98273.84;;;-10.06;100.00
23616;BME280;11985;49.404;7.734;2022-12-18T04:38:47;98267.16;;;-10.09;100.00
23616;BME280;11985;49.404;7.734;2022-12-18T04:43:50;98262.66;;;-10.02;100.00
23616;BME280;11985;49.404;7.734;2022-12-18T04:48:51;98250.81;;;-10.03;100.00
23616;BME280;11985;49.404;7.734;2022-12-18T04:53:53;98268.66;;;-10.03;100.00
23616;BME280;11985;49.404;7.734;2022-12-18T04:58:56;98288.44;;;-10.12;100.00
23616;BME280;11985;49.404;7.734;2022-12-18T05:03:57;98269.53;;;-10.04;100.00
23616;BME280;11985;49.404;7.734;2022-12-18T05:08:59;98268.88;;;-10.09;100.00
23616;BME280;11985;49.404;7.734;2022-12-18T05:14:02;98273.16;;;-10.12;100.00
23616;BME280;11985;49.404;7.734;2022-12-18T05:19:03;98250.91;;;-10.06;100.00
23616;BME280;11985;49.404;7.734;2022-12-18T05:24:05;98255.00;;;-10.02;100.00
23616;BME280;11985;49.404;7.734;2022-12-18T05:29:08;98258.16;;;-9.96;100.00
23616;BME280;11985;49.404;7.734;2022-12-18T05:34:12;98258.06;;;-9.93;100.00
23616;BME280;11985;49.404;7.734;2022-12-18T05:39:14;98263.78;;;-9.86;100.00
23616;BME280;11985;49.404;7.734;2022-12-18T05:44:16;98278.53;;;-9.71;100.00
23616;BME280;11985;49.404;7.734;2022-12-18T05:49:18;98282.81;;;-9.71;99.95
23616;BME280;11985;49.404;7.734;2022-12-18T05:54:19;98292.72;;;-9.87;97.69
23616;BME280;11985;49.404;7.734;2022-12-18T05:59:23;98294.81;;;-9.98;97.38
23616;BME280;11985;49.404;7.734;2022-12-18T06:04:26;98305.41;;;-10.11;98.23
23616;BME280;11985;49.404;7.734;2022-12-18T06:09:29;98306.66;;;-10.22;99.08
23616;BME280;11985;49.404;7.734;2022-12-18T06:14:32;98317.75;;;-10.23;100.00
23616;BME280;11985;49.404;7.734;2022-12-18T06:19:33;98321.53;;;-10.10;100.00
23616;BME280;11985;49.404;7.734;2022-12-18T06:24:35;98330.16;;;-10.14;100.00
23616;BME280;11985;49.404;7.734;2022-12-18T06:29:38;98336.63;;;-10.29;100.00
23616;BME280;11985;49.404;7.734;2022-12-18T06:34:39;98333.59;;;-10.40;100.00
23616;BME280;11985;49.404;7.734;2022-12-18T06:39:41;98331.72;;;-10.35;100.00
23616;BME280;11985;49.404;7.734;2022-12-18T06:44:44;98318.22;;;-10.37;100.00
23616;BME280;11985;49.404;7.734;2022-12-18T06:49:45;98318.31;;;-10.40;100.00
23616;BME280;11985;49.404;7.734;2022-12-18T06:54:47;98323.63;;;-10.46;100.00
23616;BME280;11985;49.404;7.734;2022-12-18T06:59:50;98326.56;;;-10.58;99.79
23616;BME280;11985;49.404;7.734;2022-12-18T07:04:52;98317.34;;;-10.62;99.40
23616;BME280;11985;49.404;7.734;2022-12-18T07:09:53;98318.94;;;-10.58;98.57
23616;BME280;11985;49.404;7.734;2022-12-18T07:14:56;98320.28;;;-10.48;98.16
23616;BME280;11985;49.404;7.734;2022-12-18T07:19:58;98320.81;;;-10.39;97.45
23616;BME280;11985;49.404;7.734;2022-12-18T07:24:59;98324.88;;;-10.33;96.34
23616;BME280;11985;49.404;7.734;2022-12-18T07:30:03;98332.78;;;-10.41;95.09
23616;BME280;11985;49.404;7.734;2022-12-18T07:35:05;98335.09;;;-10.59;93.72
23616;BME280;11985;49.404;7.734;2022-12-18T07:40:08;98335.44;;;-10.72;94.48
23616;BME280;11985;49.404;7.734;2022-12-18T07:45:11;98346.44;;;-10.70;96.01
23616;BME280;11985;49.404;7.734;2022-12-18T07:50:12;98345.56;;;-10.69;96.58
23616;BME280;11985;49.404;7.734;2022-12-18T07:55:14;98357.84;;;-10.55;96.86
23616;BME280;11985;49.404;7.734;2022-12-18T08:00:18;98374.16;;;-10.34;97.31
23616;BME280;11985;49.404;7.734;2022-12-18T08:05:20;98377.38;;;-10.29;96.78
23616;BME280;11985;49.404;7.734;2022-12-18T08:10:22;98381.31;;;-10.20;96.98
23616;BME280;11985;49.404;7.734;2022-12-18T08:15:25;98362.69;;;-10.22;97.13
23616;BME280;11985;49.404;7.734;2022-12-18T08:20:27;98358.25;;;-10.16;97.77
23616;BME280;11985;49.404;7.734;2022-12-18T08:25:28;98339.53;;;-10.15;97.78
23616;BME280;11985;49.404;7.734;2022-12-18T08:30:31;98326.16;;;-10.21;96.43
23616;BME280;11985;49.404;7.734;2022-12-18T08:35:35;98327.81;;;-10.20;96.35
23616;BME280;11985;49.404;7.734;2022-12-18T08:40:37;98312.88;;;-10.06;97.11
23616;BME280;11985;49.404;7.734;2022-12-18T08:45:40;98321.50;;;-9.85;97.31
23616;BME280;11985;49.404;7.734;2022-12-18T08:50:41;98311.69;;;-9.72;96.18
23616;BME280;11985;49.404;7.734;2022-12-18T08:55:43;98320.63;;;-9.61;95.98
23616;BME280;11985;49.404;7.734;2022-12-18T09:00:46;98322.09;;;-9.53;96.41
23616;BME280;11985;49.404;7.734;2022-12-18T09:05:47;98343.03;;;-9.45;96.36
23616;BME280;11985;49.404;7.734;2022-12-18T09:10:50;98347.97;;;-9.41;97.09
23616;BME280;11985;49.404;7.734;2022-12-18T09:15:54;98355.25;;;-9.30;96.87
23616;BME280;11985;49.404;7.734;2022-12-18T09:20:55;98349.69;;;-9.18;97.60
23616;BME280;11985;49.404;7.734;2022-12-18T09:25:58;98364.94;;;-9.16;97.80
23616;BME280;11985;49.404;7.734;2022-12-18T09:31:05;98375.78;;;-9.11;98.43
23616;BME280;11985;49.404;7.734;2022-12-18T09:36:09;98389.81;;;-8.99;100.00
23616;BME280;11985;49.404;7.734;2022-12-18T09:41:34;98390.50;;;-8.72;100.00
23616;BME280;11985;49.404;7.734;2022-12-18T09:46:44;98397.94;;;-8.44;100.00
23616;BME280;11985;49.404;7.734;2022-12-18T09:51:50;98405.00;;;-8.09;100.00
23616;BME280;11985;49.404;7.734;2022-12-18T09:56:53;98394.28;;;-7.97;100.00
23616;BME280;11985;49.404;7.734;2022-12-18T10:01:56;98386.09;;;-7.84;100.00
23616;BME280;11985;49.404;7.734;2022-12-18T10:07:03;98369.97;;;-7.66;100.00
23616;BME280;11985;49.404;7.734;2022-12-18T10:12:13;98366.75;;;-7.51;100.00
23616;BME280;11985;49.404;7.734;2022-12-18T10:17:25;98362.63;;;-7.34;100.00
23616;BME280;11985;49.404;7.734;2022-12-18T10:22:39;98363.03;;;-7.06;100.00
23616;BME280;11985;49.404;7.734;2022-12-18T10:27:43;98342.41;;;-6.84;100.00
23616;BME280;11985;49.404;7.734;2022-12-18T10:32:46;98353.25;;;-6.60;100.00
23616;BME280;11985;49.404;7.734;2022-12-18T10:38:03;98349.06;;;-6.26;100.00
23616;BME280;11985;49.404;7.734;2022-12-18T10:43:12;98358.56;;;-5.94;100.00
23616;BME280;11985;49.404;7.734;2022-12-18T10:48:20;98364.00;;;-5.67;100.00
23616;BME280;11985;49.404;7.734;2022-12-18T10:53:25;98359.22;;;-5.57;100.00
23616;BME280;11985;49.404;7.734;2022-12-18T10:58:28;98348.66;;;-5.51;100.00
23616;BME280;11985;49.404;7.734;2022-12-18T11:03:35;98338.97;;;-5.46;100.00
23616;BME280;11985;49.404;7.734;2022-12-18T11:08:38;98320.19;;;-5.46;100.00
23616;BME280;11985;49.404;7.734;2022-12-18T11:13:40;98329.63;;;-5.47;100.00
23616;BME280;11985;49.404;7.734;2022-12-18T11:18:43;98324.03;;;-5.38;100.00
23616;BME280;11985;49.404;7.734;2022-12-18T11:23:47;98340.94;;;-5.18;100.00
23616;BME280;11985;49.404;7.734;2022-12-18T11:28:53;98341.59;;;-5.14;100.00
23616;BME280;11985;49.404;7.734;2022-12-18T11:34:12;98322.72;;;-5.13;100.00
23616;BME280;11985;49.404;7.734;2022-12-18T11:39:18;98316.66;;;-5.12;100.00
23616;BME280;11985;49.404;7.734;2022-12-18T11:44:25;98312.53;;;-4.99;100.00
23616;BME280;11985;49.404;7.734;2022-12-18T11:49:33;98305.97;;;-5.05;100.00
23616;BME280;11985;49.404;7.734;2022-12-18T11:54:35;98298.84;;;-4.99;100.00
23616;BME280;11985;49.404;7.734;2022-12-18T11:59:44;98292.50;;;-4.78;100.00
23616;BME280;11985;49.404;7.734;2022-12-18T12:05:18;98285.94;;;-4.68;100.00
23616;BME280;11985;49.404;7.734;2022-12-18T12:10:35;98295.81;;;-4.60;100.00
23616;BME280;11985;49.404;7.734;2022-12-18T12:15:45;98309.13;;;-4.38;100.00
23616;BME280;11985;49.404;7.734;2022-12-18T12:21:01;98299.41;;;-4.33;100.00
23616;BME280;11985;49.404;7.734;2022-12-18T12:26:06;98298.63;;;-4.49;100.00
23616;BME280;11985;49.404;7.734;2022-12-18T12:31:16;98287.53;;;-4.65;100.00
23616;BME280;11985;49.404;7.734;2022-12-18T12:36:27;98277.03;;;-4.46;100.00
23616;BME280;11985;49.404;7.734;2022-12-18T12:41:35;98268.72;;;-4.36;100.00
23616;BME280;11985;49.404;7.734;2022-12-18T12:46:56;98267.47;;;-4.14;100.00
23616;BME280;11985;49.404;7.734;2022-12-18T12:52:04;98261.97;;;-4.08;100.00
23616;BME280;11985;49.404;7.734;2022-12-18T12:57:10;98247.19;;;-4.05;100.00
23616;BME280;11985;49.404;7.734;2022-12-18T13:02:18;98241.03;;;-3.88;100.00
23616;BME280;11985;49.404;7.734;2022-12-18T13:07:27;98243.03;;;-3.79;100.00
23616;BME280;11985;49.404;7.734;2022-12-18T13:12:30;98229.06;;;-3.89;100.00
23616;BME280;11985;49.404;7.734;2022-12-18T13:18:03;98224.84;;;-3.76;100.00
23616;BME280;11985;49.404;7.734;2022-12-18T13:23:26;98220.81;;;-3.65;100.00
23616;BME280;11985;49.404;7.734;2022-12-18T13:28:50;98226.41;;;-3.59;100.00
23616;BME280;11985;49.404;7.734;2022-12-18T13:34:11;98226.41;;;-3.59;100.00
23616;BME280;11985;49.404;7.734;2022-12-18T13:39:24;98230.81;;;-3.89;100.00
23616;BME280;11985;49.404;7.734;2022-12-18T13:44:31;98219.72;;;-4.04;100.00
23616;BME280;11985;49.404;7.734;2022-12-18T13:49:38;98214.66;;;-3.91;100.00
23616;BME280;11985;49.404;7.734;2022-12-18T13:54:42;98225.03;;;-3.93;100.00
23616;BME280;11985;49.404;7.734;2022-12-18T13:59:43;98220.06;;;-3.96;100.00
23616;BME280;11985;49.404;7.734;2022-12-18T14:04:45;98216.75;;;-4.27;100.00
23616;BME280;11985;49.404;7.734;2022-12-18T14:09:50;98221.69;;;-4.23;100.00
23616;BME280;11985;49.404;7.734;2022-12-18T14:14:52;98219.03;;;-4.22;100.00
23616;BME280;11985;49.404;7.734;2022-12-18T14:19:54;98214.38;;;-4.15;100.00
23616;BME280;11985;49.404;7.734;2022-12-18T14:25:16;98218.41;;;-3.97;100.00
23616;BME280;11985;49.404;7.734;2022-12-18T14:30:27;98222.91;;;-3.72;100.00
23616;BME280;11985;49.404;7.734;2022-12-18T14:35:29;98217.66;;;-3.56;100.00
23616;BME280;11985;49.404;7.734;2022-12-18T14:40:32;98207.56;;;-3.59;100.00
23616;BME280;11985;49.404;7.734;2022-12-18T14:45:39;98213.06;;;-3.65;100.00
23616;BME280;11985;49.404;7.734;2022-12-18T14:50:42;98213.47;;;-3.72;100.00
23616;BME280;11985;49.404;7.734;2022-12-18T14:55:46;98203.72;;;-3.81;100.00
23616;BME280;11985;49.404;7.734;2022-12-18T15:00:48;98201.69;;;-3.90;100.00
23616;BME280;11985;49.404;7.734;2022-12-18T15:05:50;98194.53;;;-3.99;100.00
23616;BME280;11985;49.404;7.734;2022-12-18T15:10:52;98206.91;;;-4.06;100.00
23616;BME280;11985;49.404;7.734;2022-12-18T15:15:55;98212.00;;;-4.04;100.00
23616;BME280;11985;49.404;7.734;2022-12-18T15:20:59;98216.13;;;-4.02;100.00
23616;BME280;11985;49.404;7.734;2022-12-18T15:26:04;98214.75;;;-3.93;100.00
23616;BME280;11985;49.404;7.734;2022-12-18T15:31:21;98212.16;;;-3.79;100.00
23616;BME280;11985;49.404;7.734;2022-12-18T15:36:23;98213.63;;;-3.75;100.00
23616;BME280;11985;49.404;7.734;2022-12-18T15:41:27;98227.06;;;-3.69;100.00
23616;BME280;11985;49.404;7.734;2022-12-18T15:46:28;98220.69;;;-3.78;100.00
23616;BME280;11985;49.404;7.734;2022-12-18T15:51:33;98229.00;;;-3.87;100.00
23616;BME280;11985;49.404;7.734;2022-12-18T15:56:37;98217.75;;;-4.01;100.00
23616;BME280;11985;49.404;7.734;2022-12-18T16:01:56;98216.38;;;-4.20;100.00
23616;BME280;11985;49.404;7.734;2022-12-18T16:06:58;98214.34;;;-4.44;100.00
23616;BME280;11985;49.404;7.734;2022-12-18T16:12:00;98214.84;;;-4.53;100.00
23616;BME280;11985;49.404;7.734;2022-12-18T16:17:05;98222.34;;;-4.64;100.00
23616;BME280;11985;49.404;7.734;2022-12-18T16:22:17;98220.50;;;-4.62;100.00
23616;BME280;11985;49.404;7.734;2022-12-18T16:27:23;98225.31;;;-4.56;100.00
23616;BME280;11985;49.404;7.734;2022-12-18T16:32:25;98218.00;;;-4.48;100.00
23616;BME280;11985;49.404;7.734;2022-12-18T16:37:26;98211.19;;;-4.49;100.00
23616;BME280;11985;49.404;7.734;2022-12-18T16:42:29;98203.00;;;-4.56;100.00
23616;BME280;11985;49.404;7.734;2022-12-18T16:47:31;98185.53;;;-4.65;100.00
23616;BME280;11985;49.404;7.734;2022-12-18T16:52:32;98185.06;;;-4.71;100.00
23616;BME280;11985;49.404;7.734;2022-12-18T16:57:35;98185.19;;;-4.59;100.00
23616;BME280;11985;49.404;7.734;2022-12-18T17:02:37;98178.16;;;-4.41;100.00
23616;BME280;11985;49.404;7.734;2022-12-18T17:07:39;98183.31;;;-4.27;100.00
23616;BME280;11985;49.404;7.734;2022-12-18T17:12:42;98185.16;;;-4.14;100.00
23616;BME280;11985;49.404;7.734;2022-12-18T17:17:43;98189.75;;;-4.05;100.00
23616;BME280;11985;49.404;7.734;2022-12-18T17:22:45;98197.47;;;-3.91;100.00
23616;BME280;11985;49.404;7.734;2022-12-18T17:27:49;98200.59;;;-3.86;100.00
23616;BME280;11985;49.404;7.734;2022-12-18T17:32:51;98194.53;;;-3.99;100.00
23616;BME280;11985;49.404;7.734;2022-12-18T17:37:52;98183.13;;;-4.09;100.00
23616;BME280;11985;49.404;7.734;2022-12-18T17:42:55;98178.34;;;-4.15;100.00
23616;BME280;11985;49.404;7.734;2022-12-18T17:47:57;98182.19;;;-4.22;100.00
23616;BME280;11985;49.404;7.734;2022-12-18T17:52:58;98180.19;;;-4.17;100.00
23616;BME280;11985;49.404;7.734;2022-12-18T17:58:01;98178.34;;;-4.15;100.00
23616;BME280;11985;49.404;7.734;2022-12-18T18:03:03;98178.34;;;-4.15;100.00
23616;BME280;11985;49.404;7.734;2022-12-18T18:08:05;98181.13;;;-4.04;100.00
23616;BME280;11985;49.404;7.734;2022-12-18T18:13:17;98173.00;;;-3.84;100.00
23616;BME280;11985;49.404;7.734;2022-12-18T18:18:37;98156.91;;;-3.73;100.00
23616;BME280;11985;49.404;7.734;2022-12-18T18:23:39;98146.31;;;-3.68;100.00
23616;BME280;11985;49.404;7.734;2022-12-18T18:28:41;98148.72;;;-3.65;100.00
23616;BME280;11985;49.404;7.734;2022-12-18T18:33:43;98156.72;;;-3.70;100.00
23616;BME280;11985;49.404;7.734;2022-12-18T18:38:45;98151.28;;;-3.65;100.00
23616;BME280;11985;49.404;7.734;2022-12-18T18:43:47;98138.41;;;-3.65;100.00
23616;BME280;11985;49.404;7.734;2022-12-18T18:48:49;98133.34;;;-3.67;100.00
23616;BME280;11985;49.404;7.734;2022-12-18T18:53:51;98133.34;;;-3.67;100.00
23616;BME280;11985;49.404;7.734;2022-12-18T18:58:54;98120.84;;;-3.59;100.00
23616;BME280;11985;49.404;7.734;2022-12-18T19:03:56;98118.59;;;-3.51;100.00
23616;BME280;11985;49.404;7.734;2022-12-18T19:09:00;98104.69;;;-3.48;100.00
23616;BME280;11985;49.404;7.734;2022-12-18T19:14:06;98107.56;;;-3.53;100.00
23616;BME280;11985;49.404;7.734;2022-12-18T19:19:08;98114.09;;;-3.61;100.00
23616;BME280;11985;49.404;7.734;2022-12-18T19:24:09;98104.66;;;-3.61;100.00
23616;BME280;11985;49.404;7.734;2022-12-18T19:29:12;98117.22;;;-3.56;100.00
23616;BME280;11985;49.404;7.734;2022-12-18T19:34:15;98118.78;;;-3.54;100.00
23616;BME280;11985;49.404;7.734;2022-12-18T19:39:17;98106.03;;;-3.55;100.00
23616;BME280;11985;49.404;7.734;2022-12-18T19:44:21;98107.72;;;-3.41;100.00
23616;BME280;11985;49.404;7.734;2022-12-18T19:49:22;98117.47;;;-3.20;100.00
23616;BME280;11985;49.404;7.734;2022-12-18T19:54:24;98115.41;;;-3.14;100.00
23616;BME280;11985;49.404;7.734;2022-12-18T19:59:27;98115.00;;;-3.21;100.00
23616;BME280;11985;49.404;7.734;2022-12-18T20:04:28;98114.88;;;-3.20;100.00
23616;BME280;11985;49.404;7.734;2022-12-18T20:09:31;98110.84;;;-3.24;100.00
23616;BME280;11985;49.404;7.734;2022-12-18T20:14:35;98096.72;;;-3.31;100.00
23616;BME280;11985;49.404;7.734;2022-12-18T20:19:36;98087.34;;;-3.32;100.00
23616;BME280;11985;49.404;7.734;2022-12-18T20:24:38;98092.38;;;-3.30;100.00
23616;BME280;11985;49.404;7.734;2022-12-18T20:29:41;98098.38;;;-3.30;100.00
23616;BME280;11985;49.404;7.734;2022-12-18T20:34:43;98104.22;;;-3.28;100.00
23616;BME280;11985;49.404;7.734;2022-12-18T20:39:45;98099.13;;;-3.15;100.00
23616;BME280;11985;49.404;7.734;2022-12-18T20:44:47;98096.06;;;-2.95;100.00
23616;BME280;11985;49.404;7.734;2022-12-18T20:49:49;98082.69;;;-2.87;100.00
23616;BME280;11985;49.404;7.734;2022-12-18T20:54:51;98091.34;;;-2.88;100.00
23616;BME280;11985;49.404;7.734;2022-12-18T20:59:54;98090.00;;;-2.94;100.00
23616;BME280;11985;49.404;7.734;2022-12-18T21:04:55;98085.97;;;-2.98;100.00
23616;BME280;11985;49.404;7.734;2022-12-18T21:09:57;98084.53;;;-2.89;100.00
23616;BME280;11985;49.404;7.734;2022-12-18T21:15:00;98076.59;;;-2.86;100.00
23616;BME280;11985;49.404;7.734;2022-12-18T21:20:03;98081.94;;;-2.89;100.00
23616;BME280;11985;49.404;7.734;2022-12-18T21:25:05;98094.63;;;-2.86;100.00
23616;BME280;11985;49.404;7.734;2022-12-18T21:30:09;98105.13;;;-2.89;100.00
23616;BME280;11985;49.404;7.734;2022-12-18T21:35:10;98109.91;;;-2.83;100.00
23616;BME280;11985;49.404;7.734;2022-12-18T21:40:12;98101.25;;;-2.82;100.00
23616;BME280;11985;49.404;7.734;2022-12-18T21:45:15;98091.34;;;-2.75;100.00
23616;BME280;11985;49.404;7.734;2022-12-18T21:50:17;98093.81;;;-2.74;100.00
23616;BME280;11985;49.404;7.734;2022-12-18T21:55:18;98088.97;;;-2.78;100.00
23616;BME280;11985;49.404;7.734;2022-12-18T22:00:21;98078.47;;;-2.88;100.00
23616;BME280;11985;49.404;7.734;2022-12-18T22:05:23;98091.94;;;-2.97;100.00
23616;BME280;11985;49.404;7.734;2022-12-18T22:10:25;98100.78;;;-3.01;100.00
23616;BME280;11985;49.404;7.734;2022-12-18T22:15:28;98092.34;;;-3.03;100.00
23616;BME280;11985;49.404;7.734;2022-12-18T22:20:29;98095.25;;;-2.95;100.00
23616;BME280;11985;49.404;7.734;2022-12-18T22:25:31;98104.94;;;-2.86;100.00
23616;BME280;11985;49.404;7.734;2022-12-18T22:30:34;98097.53;;;-2.78;100.00
23616;BME280;11985;49.404;7.734;2022-12-18T22:35:35;98092.38;;;-2.78;100.00
23616;BME280;11985;49.404;7.734;2022-12-18T22:40:37;98086.38;;;-2.91;100.00
23616;BME280;11985;49.404;7.734;2022-12-18T22:45:40;98097.81;;;-2.95;100.00
23616;BME280;11985;49.404;7.734;2022-12-18T22:50:46;98095.66;;;-3.01;100.00
23616;BME280;11985;49.404;7.734;2022-12-18T22:55:47;98087.19;;;-3.03;100.00
23616;BME280;11985;49.404;7.734;2022-12-18T23:00:50;98075.25;;;-3.04;100.00
23616;BME280;11985;49.404;7.734;2022-12-18T23:05:52;98070.28;;;-3.07;100.00
23616;BME280;11985;49.404;7.734;2022-12-18T23:10:54;98063.59;;;-3.10;100.00
23616;BME280;11985;49.404;7.734;2022-12-18T23:15:57;98071.41;;;-3.11;100.00
23616;BME280;11985;49.404;7.734;2022-12-18T23:21:03;98057.41;;;-3.07;100.00
23616;BME280;11985;49.404;7.734;2022-12-18T23:26:08;98049.25;;;-3.01;100.00
23616;BME280;11985;49.404;7.734;2022-12-18T23:31:12;98055.03;;;-2.98;100.00
23616;BME280;11985;49.404;7.734;2022-12-18T23:36:15;98047.00;;;-2.93;100.00
23616;BME280;11985;49.404;7.734;2022-12-18T23:41:18;98043.72;;;-2.82;100.00
23616;BME280;11985;49.404;7.734;2022-12-18T23:46:23;98041.53;;;-2.76;100.00
23616;BME280;11985;49.404;7.734;2022-12-18T23:51:26;98032.88;;;-2.75;100.00
23616;BME280;11985;49.404;7.734;2022-12-18T23:56:28;98030.28;;;-2.75;100.00
